createdAt,value
2023-03-06T00:02:57.003Z,2.47
2023-03-06T00:06:04.189Z,2.58
2023-03-06T00:09:10.754Z,2.58
2023-03-06T00:12:17.526Z,2.68
2023-03-06T00:15:24.255Z,2.72
2023-03-06T00:18:33.672Z,2.63
2023-03-06T00:21:39.664Z,2.55
2023-03-06T00:24:47.317Z,2.55
2023-03-06T00:27:53.937Z,2.48
2023-03-06T00:31:01.423Z,2.38
2023-03-06T00:34:11.750Z,2.25
2023-03-06T00:37:19.325Z,2.19
2023-03-06T00:40:25.564Z,2.21
2023-03-06T00:43:33.025Z,2.33
2023-03-06T00:46:39.379Z,2.39
2023-03-06T00:49:48.735Z,2.26
2023-03-06T00:52:54.609Z,2.08
2023-03-06T00:56:01.263Z,1.78
2023-03-06T00:59:08.674Z,1.60
2023-03-06T01:02:15.612Z,1.59
2023-03-06T01:05:24.979Z,1.63
2023-03-06T01:08:31.704Z,1.73
2023-03-06T01:11:37.474Z,1.79
2023-03-06T01:14:44.182Z,1.86
2023-03-06T01:17:50.199Z,1.96
2023-03-06T01:20:59.369Z,1.97
2023-03-06T01:24:05.182Z,2.03
2023-03-06T01:27:12.192Z,2.09
2023-03-06T01:30:18.578Z,2.10
2023-03-06T01:33:25.467Z,2.03
2023-03-06T01:36:33.945Z,2.06
2023-03-06T01:39:42.488Z,2.15
2023-03-06T01:42:48.343Z,2.21
2023-03-06T01:46:42.395Z,2.33
2023-03-06T01:49:48.261Z,2.25
2023-03-06T01:53:03.985Z,2.16
2023-03-06T01:56:11.171Z,2.20
2023-03-06T01:59:19.479Z,2.27
2023-03-06T02:02:25.966Z,2.23
2023-03-06T02:05:32.848Z,2.21
2023-03-06T02:08:43.107Z,2.26
2023-03-06T02:11:49.833Z,2.32
2023-03-06T02:14:56.783Z,2.16
2023-03-06T02:18:04.176Z,2.11
2023-03-06T02:21:13.171Z,2.21
2023-03-06T02:24:40.522Z,2.34
2023-03-06T02:27:49.241Z,2.38
2023-03-06T02:30:59.940Z,2.38
2023-03-06T02:34:31.202Z,2.39
2023-03-06T02:37:37.879Z,2.44
2023-03-06T02:40:49.978Z,2.48
2023-03-06T02:43:59.361Z,2.53
2023-03-06T02:47:05.230Z,2.55
2023-03-06T02:50:13.647Z,2.59
2023-03-06T02:53:22.541Z,2.60
2023-03-06T02:56:29.133Z,2.63
2023-03-06T02:59:38.775Z,2.69
2023-03-06T03:02:47.057Z,2.65
2023-03-06T03:05:52.949Z,2.67
2023-03-06T03:09:04.070Z,2.67
2023-03-06T03:12:11.365Z,2.67
2023-03-06T03:15:22.124Z,2.67
2023-03-06T03:18:27.893Z,2.77
2023-03-06T03:21:34.755Z,2.76
2023-03-06T03:24:40.641Z,2.75
2023-03-06T03:27:47.445Z,2.68
2023-03-06T03:30:55.978Z,2.68
2023-03-06T03:34:04.844Z,2.74
2023-03-06T03:37:14.169Z,2.75
2023-03-06T03:40:22.696Z,2.75
2023-03-06T03:43:29.988Z,2.75
2023-03-06T03:46:41.371Z,2.68
2023-03-06T03:49:52.152Z,2.56
2023-03-06T03:53:00.225Z,2.60
2023-03-06T03:56:06.837Z,2.61
2023-03-06T03:59:18.819Z,2.63
2023-03-06T04:02:38.148Z,2.54
2023-03-06T04:05:54.107Z,2.59
2023-03-06T04:09:00.434Z,2.64
2023-03-06T04:12:08.960Z,2.67
2023-03-06T04:15:16.302Z,2.67
2023-03-06T04:18:27.487Z,2.60
2023-03-06T04:21:37.900Z,2.49
2023-03-06T04:24:45.785Z,2.49
2023-03-06T04:27:52.361Z,2.50
2023-03-06T04:30:59.135Z,2.49
2023-03-06T04:34:07.873Z,2.34
2023-03-06T04:37:24.283Z,2.28
2023-03-06T04:40:34.805Z,2.17
2023-03-06T04:43:41.807Z,2.12
2023-03-06T04:46:47.610Z,2.04
2023-03-06T04:49:56.964Z,2.07
2023-03-06T04:53:04.929Z,1.95
2023-03-06T04:56:12.070Z,1.89
2023-03-06T04:59:17.841Z,1.88
2023-03-06T05:02:24.862Z,1.83
2023-03-06T05:05:33.983Z,1.71
2023-03-06T05:08:40.544Z,1.67
2023-03-06T05:11:46.312Z,1.65
2023-03-06T05:14:52.925Z,1.60
2023-03-06T05:17:58.700Z,1.48
2023-03-06T05:21:09.303Z,1.31
2023-03-06T05:24:15.206Z,1.17
2023-03-06T05:27:21.893Z,1.14
2023-03-06T05:30:28.146Z,1.09
2023-03-06T05:33:35.516Z,1.21
2023-03-06T05:36:44.635Z,1.30
2023-03-06T05:39:51.306Z,1.23
2023-03-06T05:42:57.071Z,1.25
2023-03-06T05:46:05.725Z,1.13
2023-03-06T05:49:11.848Z,1.08
2023-03-06T05:52:21.494Z,1.06
2023-03-06T05:55:29.801Z,1.00
2023-03-06T05:58:38.022Z,0.94
2023-03-06T06:01:43.964Z,1.02
2023-03-06T06:04:51.268Z,1.12
2023-03-06T06:07:59.650Z,1.16
2023-03-06T06:11:12.322Z,1.23
2023-03-06T06:14:31.220Z,1.25
2023-03-06T06:23:26.874Z,1.53
2023-03-06T06:27:10.552Z,1.46
2023-03-06T06:30:48.847Z,1.64
2023-03-06T06:34:25.987Z,1.63
2023-03-06T06:38:05.998Z,1.81
2023-03-06T06:42:11.026Z,1.65
2023-03-06T06:45:34.549Z,1.69
2023-03-06T06:48:41.127Z,1.65
2023-03-06T06:51:47.029Z,1.60
2023-03-06T06:54:53.853Z,1.57
2023-03-06T06:58:02.225Z,1.60
2023-03-06T07:01:10.329Z,1.58
2023-03-06T07:04:16.920Z,1.54
2023-03-06T07:07:25.416Z,1.53
2023-03-06T07:10:32.052Z,1.56
2023-03-06T07:13:41.623Z,1.62
2023-03-06T07:16:47.364Z,1.57
2023-03-06T07:19:53.996Z,1.46
2023-03-06T07:22:59.830Z,1.36
2023-03-06T07:26:07.060Z,1.37
2023-03-06T07:29:15.494Z,1.43
2023-03-06T07:32:22.089Z,1.52
2023-03-06T07:35:29.894Z,1.54
2023-03-06T07:38:36.570Z,1.73
2023-03-06T07:41:42.420Z,1.85
2023-03-06T07:44:51.650Z,1.97
2023-03-06T07:47:57.826Z,2.06
2023-03-06T07:51:10.282Z,2.19
2023-03-06T07:54:16.193Z,2.37
2023-03-06T07:57:22.929Z,2.54
2023-03-06T08:00:31.495Z,2.67
2023-03-06T08:03:41.364Z,2.85
2023-03-06T08:06:47.134Z,2.93
2023-03-06T08:09:53.946Z,2.96
2023-03-06T08:13:00.021Z,3.06
2023-03-06T08:16:10.674Z,3.18
2023-03-06T08:19:16.518Z,3.30
2023-03-06T08:22:23.884Z,3.45
2023-03-06T08:25:29.742Z,3.69
2023-03-06T08:28:37.022Z,3.99
2023-03-06T08:31:48.663Z,4.42
2023-03-06T08:34:56.131Z,4.84
2023-03-06T08:38:02.045Z,5.30
2023-03-06T08:41:08.841Z,5.65
2023-03-06T08:44:15.667Z,5.96
2023-03-06T08:47:24.915Z,6.43
2023-03-06T08:50:30.862Z,6.85
2023-03-06T08:53:43.084Z,7.31
2023-03-06T08:56:49.527Z,7.58
2023-03-06T08:59:56.079Z,7.66
2023-03-06T09:03:04.584Z,7.82
2023-03-06T09:06:11.262Z,8.38
2023-03-06T09:09:18.291Z,8.81
2023-03-06T09:12:24.031Z,9.00
2023-03-06T09:15:30.690Z,9.28
2023-03-06T09:18:39.659Z,9.52
2023-03-06T09:21:46.280Z,9.44
2023-03-06T09:24:52.659Z,9.19
2023-03-06T09:28:10.890Z,8.98
2023-03-06T09:31:21.786Z,8.87
2023-03-06T09:34:31.007Z,9.03
2023-03-06T09:37:37.247Z,9.60
2023-03-06T09:44:21.492Z,10.09
2023-03-06T09:47:50.595Z,9.97
2023-03-06T09:51:13.128Z,9.66
2023-03-06T09:54:24.064Z,9.61
2023-03-06T09:57:36.252Z,9.59
2023-03-06T10:00:54.442Z,9.56
2023-03-06T10:04:27.094Z,9.48
2023-03-06T10:07:49.895Z,9.42
2023-03-06T10:11:05.707Z,9.45
2023-03-06T10:14:26.763Z,9.52
2023-03-06T10:17:41.648Z,9.93
2023-03-06T10:21:16.978Z,10.35
2023-03-06T10:24:56.232Z,10.99
2023-03-06T10:28:18.562Z,11.63
2023-03-06T10:31:29.419Z,11.83
2023-03-06T10:34:44.379Z,11.74
2023-03-06T10:37:51.902Z,11.88
2023-03-06T10:41:19.609Z,11.56
2023-03-06T10:44:29.110Z,12.09
2023-03-06T10:47:37.765Z,12.77
2023-03-06T10:50:43.771Z,13.20
2023-03-06T10:53:58.996Z,13.46
2023-03-06T10:57:32.891Z,13.68
2023-03-06T11:00:39.679Z,13.56
2023-03-06T11:03:45.706Z,13.45
2023-03-06T11:07:08.480Z,13.69
2023-03-06T11:10:23.832Z,13.34
2023-03-06T11:13:36.178Z,12.83
2023-03-06T11:16:42.746Z,12.13
2023-03-06T11:19:49.417Z,11.64
2023-03-06T11:23:03.209Z,11.17
2023-03-06T11:26:32.596Z,10.89
2023-03-06T11:29:46.294Z,10.59
2023-03-06T11:33:02.026Z,10.33
2023-03-06T11:36:21.553Z,10.19
2023-03-06T11:39:39.836Z,10.05
2023-03-06T11:42:59.102Z,9.77
2023-03-06T11:46:22.977Z,9.28
2023-03-06T11:49:41.479Z,9.17
2023-03-06T11:52:56.743Z,9.11
2023-03-06T11:56:23.025Z,9.21
2023-03-06T12:00:24.301Z,9.34
2023-03-06T12:04:16.753Z,9.56
2023-03-06T12:07:35.085Z,9.35
2023-03-06T12:10:52.441Z,9.22
2023-03-06T12:14:25.887Z,9.33
2023-03-06T12:17:57.857Z,9.44
2023-03-06T12:21:23.375Z,9.36
2023-03-06T12:25:21.294Z,9.29
2023-03-06T12:29:05.608Z,9.74
2023-03-06T12:32:30.651Z,10.12
2023-03-06T12:36:17.114Z,10.44
2023-03-06T12:39:45.047Z,10.45
2023-03-06T12:43:40.587Z,10.07
2023-03-06T12:46:54.888Z,9.81
2023-03-06T12:50:10.471Z,9.48
2023-03-06T12:53:30.500Z,9.24
2023-03-06T12:56:38.758Z,8.78
2023-03-06T12:59:48.837Z,8.53
2023-03-06T13:03:21.589Z,8.46
2023-03-06T13:07:05.688Z,8.24
2023-03-06T13:10:25.668Z,7.89
2023-03-06T13:13:37.227Z,7.69
2023-03-06T13:16:43.898Z,7.67
2023-03-06T13:19:50.902Z,7.49
2023-03-06T13:22:57.836Z,7.00
2023-03-06T13:26:12.783Z,6.92
2023-03-06T13:29:55.762Z,6.97
2023-03-06T13:33:01.639Z,7.17
2023-03-06T13:36:27.096Z,7.22
2023-03-06T13:40:29.625Z,7.09
2023-03-06T13:43:45.665Z,6.88
2023-03-06T13:47:02.740Z,6.73
2023-03-06T13:50:38.382Z,6.77
2023-03-06T13:54:30.742Z,6.93
2023-03-06T13:58:04.076Z,6.98
2023-03-06T14:01:43.070Z,6.99
2023-03-06T14:05:00.743Z,7.01
2023-03-06T14:08:17.564Z,7.07
2023-03-06T14:11:25.026Z,6.96
2023-03-06T14:14:45.442Z,6.86
2023-03-06T14:18:03.433Z,6.66
2023-03-06T14:21:15.990Z,6.32
2023-03-06T14:24:34.562Z,6.03
2023-03-06T14:27:56.325Z,5.82
2023-03-06T14:31:08.849Z,5.58
2023-03-06T14:34:26.758Z,5.60
2023-03-06T14:37:35.094Z,5.68
2023-03-06T14:40:48.624Z,5.80
2023-03-06T14:44:10.022Z,5.83
2023-03-06T14:47:28.722Z,6.06
2023-03-06T14:50:41.021Z,6.13
2023-03-06T14:53:49.847Z,6.12
2023-03-06T14:57:06.144Z,5.91
2023-03-06T15:00:24.199Z,5.77
2023-03-06T15:03:45.416Z,5.74
2023-03-06T15:06:56.925Z,5.54
2023-03-06T15:10:10.535Z,5.41
2023-03-06T15:13:26.268Z,5.26
2023-03-06T15:16:34.973Z,5.17
2023-03-06T15:19:43.380Z,5.02
2023-03-06T15:22:54.165Z,4.93
2023-03-06T15:26:03.898Z,4.86
2023-03-06T15:29:26.665Z,4.82
2023-03-06T15:32:42.619Z,4.70
2023-03-06T15:35:58.924Z,4.72
2023-03-06T15:39:41.354Z,4.80
2023-03-06T15:42:50.120Z,4.78
2023-03-06T15:46:03.580Z,4.81
2023-03-06T15:49:20.768Z,4.72
2023-03-06T15:52:27.536Z,4.73
2023-03-06T15:55:36.885Z,4.81
2023-03-06T15:58:44.777Z,4.74
2023-03-06T16:01:53.244Z,4.60
2023-03-06T16:05:02.558Z,4.48
2023-03-06T16:08:11.030Z,4.34
2023-03-06T16:11:35.340Z,4.32
2023-03-06T16:14:50.757Z,4.43
2023-03-06T16:17:56.747Z,4.49
2023-03-06T16:21:03.597Z,4.25
2023-03-06T16:24:09.865Z,4.07
2023-03-06T16:27:25.719Z,3.99
2023-03-06T16:30:35.704Z,3.98
2023-03-06T16:33:42.596Z,3.87
2023-03-06T16:36:50.299Z,3.86
2023-03-06T16:39:56.840Z,3.98
2023-03-06T16:43:05.278Z,4.03
2023-03-06T16:46:20.612Z,4.18
2023-03-06T16:49:27.953Z,4.23
2023-03-06T16:52:34.871Z,4.08
2023-03-06T16:55:40.808Z,4.00
2023-03-06T16:58:52.023Z,3.83
2023-03-06T17:01:57.855Z,3.69
2023-03-06T17:05:04.644Z,3.45
2023-03-06T17:08:10.670Z,3.42
2023-03-06T17:11:18.118Z,3.24
2023-03-06T17:14:26.591Z,3.21
2023-03-06T17:17:33.237Z,3.06
2023-03-06T17:20:39.085Z,2.90
2023-03-06T17:23:47.042Z,2.73
2023-03-06T17:26:53.048Z,2.65
2023-03-06T17:30:04.480Z,2.59
2023-03-06T17:33:10.312Z,2.59
2023-03-06T17:36:19.548Z,2.76
2023-03-06T17:39:26.027Z,2.84
2023-03-06T17:42:32.689Z,3.02
2023-03-06T17:45:41.999Z,2.95
2023-03-06T17:48:49.655Z,2.89
2023-03-06T17:51:56.640Z,2.85
2023-03-06T17:55:03.203Z,2.82
2023-03-06T18:01:21.641Z,2.97
2023-03-06T18:04:28.661Z,3.00
2023-03-06T18:07:34.476Z,3.04
2023-03-06T18:10:43.514Z,3.06
2023-03-06T18:13:49.323Z,3.09
2023-03-06T18:16:58.508Z,3.02
2023-03-06T18:20:04.627Z,3.12
2023-03-06T18:23:11.903Z,3.17
2023-03-06T18:26:21.007Z,3.12
2023-03-06T18:29:27.711Z,3.25
2023-03-06T18:32:36.212Z,3.38
2023-03-06T18:35:44.214Z,3.43
2023-03-06T18:38:50.190Z,3.42
2023-03-06T18:41:56.896Z,3.57
2023-03-06T18:45:03.236Z,3.48
2023-03-06T18:48:12.575Z,3.50
2023-03-06T18:51:20.376Z,3.59
2023-03-06T18:54:28.748Z,3.48
2023-03-06T18:57:34.595Z,3.52
2023-03-06T19:00:41.218Z,3.50
2023-03-06T19:03:53.133Z,3.34
2023-03-06T19:06:59.845Z,3.22
2023-03-06T19:10:06.149Z,3.10
2023-03-06T19:13:14.225Z,3.08
2023-03-06T19:16:23.266Z,3.07
2023-03-06T19:19:32.721Z,3.06
2023-03-06T19:22:38.601Z,3.05
2023-03-06T19:25:45.437Z,3.04
2023-03-06T19:28:56.570Z,3.05
2023-03-06T19:32:04.428Z,3.07
2023-03-06T19:35:13.850Z,3.18
2023-03-06T19:38:21.026Z,3.23
2023-03-06T19:41:28.157Z,3.26
2023-03-06T19:44:35.692Z,3.20
2023-03-06T19:47:41.682Z,3.26
2023-03-06T19:50:52.464Z,3.27
2023-03-06T19:53:59.817Z,3.22
2023-03-06T19:57:06.870Z,3.15
2023-03-06T20:00:16.228Z,3.04
2023-03-06T20:03:22.863Z,3.05
2023-03-06T20:06:36.809Z,3.00
2023-03-06T20:09:44.025Z,3.01
2023-03-06T20:12:55.144Z,3.06
2023-03-06T20:16:06.292Z,2.98
2023-03-06T20:19:13.924Z,2.92
2023-03-06T20:22:23.598Z,2.90
2023-03-06T20:25:29.989Z,2.96
2023-03-06T20:28:38.077Z,2.92
2023-03-06T20:31:45.627Z,2.89
2023-03-06T20:34:55.369Z,2.86
2023-03-06T20:38:04.151Z,2.82
2023-03-06T20:41:18.573Z,2.76
2023-03-06T20:44:24.405Z,2.77
2023-03-06T20:47:32.883Z,2.84
2023-03-06T20:50:39.022Z,2.93
2023-03-06T20:53:50.838Z,3.00
2023-03-06T20:56:58.235Z,3.12
2023-03-06T21:00:05.412Z,3.11
2023-03-06T21:03:11.355Z,3.17
2023-03-06T21:06:18.907Z,3.16
2023-03-06T21:09:27.268Z,3.13
2023-03-06T21:12:36.429Z,3.12
2023-03-06T21:15:42.702Z,3.10
2023-03-06T21:18:50.277Z,3.08
2023-03-06T21:21:56.328Z,3.09
2023-03-06T21:25:05.558Z,3.10
2023-03-06T21:28:11.307Z,3.08
2023-03-06T21:31:22.197Z,3.18
2023-03-06T21:34:28.347Z,3.21
2023-03-06T21:37:35.283Z,3.24
2023-03-06T21:40:45.525Z,3.20
2023-03-06T21:43:52.106Z,3.20
2023-03-06T21:46:57.796Z,3.15
2023-03-06T21:50:04.352Z,3.19
2023-03-06T21:53:12.463Z,3.24
2023-03-06T21:56:25.486Z,3.21
2023-03-06T21:59:31.425Z,3.23
2023-03-06T22:02:38.500Z,3.27
2023-03-06T22:05:44.786Z,3.31
2023-03-06T22:08:51.855Z,3.27
2023-03-06T22:12:00.393Z,3.21
2023-03-06T22:15:09.560Z,3.18
2023-03-06T22:18:16.054Z,3.10
2023-03-06T22:21:26.057Z,3.08
2023-03-06T22:24:31.881Z,3.03
2023-03-06T22:27:41.152Z,3.03
2023-03-06T22:30:46.891Z,2.98
2023-03-06T22:33:55.343Z,2.87
2023-03-06T22:37:01.328Z,2.86
2023-03-06T22:40:09.809Z,2.79
2023-03-06T22:43:20.164Z,2.74
2023-03-06T22:46:27.974Z,2.68
2023-03-06T22:49:33.818Z,2.78
2023-03-06T22:52:40.460Z,2.69
2023-03-06T22:55:46.272Z,2.74
2023-03-06T22:58:55.585Z,2.75
2023-03-06T23:02:01.441Z,2.79
2023-03-06T23:05:09.833Z,2.80
2023-03-06T23:08:17.307Z,2.90
2023-03-06T23:11:26.001Z,2.87
2023-03-06T23:14:53.182Z,2.98
2023-03-06T23:18:18.213Z,3.02
2023-03-06T23:21:43.028Z,3.10
2023-03-06T23:25:09.745Z,3.17
2023-03-06T23:28:15.801Z,3.23
2023-03-06T23:31:28.737Z,3.21
2023-03-06T23:34:34.746Z,3.29
2023-03-06T23:37:42.830Z,3.29
2023-03-06T23:40:49.755Z,3.28
2023-03-06T23:43:56.642Z,3.28
2023-03-06T23:47:05.651Z,3.33
2023-03-06T23:50:14.203Z,3.37
2023-03-06T23:53:20.645Z,3.33
2023-03-06T23:56:27.920Z,3.35
2023-03-06T23:59:33.764Z,3.33
